OSDI/DAM METAR and TAF weather

Enter ICAO airport designator
Station Type Date Time Source
OSDI METAR 2020/11/27 15:00 UTC NOAA

OSDI 271500Z 06006KT 9999 SCT030 12/07 Q1020


Station Type Date Time Source
OSDI Decoded METAR 2020/11/27 15:00 UTC NOAA

Damascus Int. Airport, Syria (OSDI) 33-25N 036-31E 609M
Nov 27, 2020 - 10:00 AM EST / 2020.11.27 1500 UTC
Wind: from the ENE (060 degrees) at 7 MPH (6 KT):0
Visibility: greater than 7 mile(s):0
Sky conditions: partly cloudy
Temperature: 53 F (12 C)
Dew Point: 44 F (7 C)
Relative Humidity: 71%
Pressure (altimeter): 30.12 in. Hg (1020 hPa)
ob: OSDI 271500Z 06006KT 9999 SCT030 12/07 Q1020
cycle: 15

Station Type Date Time Source
OSDI TAF 2020/11/27 12:57 UTC NOAA

TAF TAF OSDI 2712/2818 20010KT 8000 SCT030 BKN100 PROB30
TEMPO 2715/2818 26015G25KT 6000 SHRA FEW025 CB BKN030 OVC100

Example: see airport list